sensor_id;sensor_type;location;lat;lon;timestamp;pressure;altitude;pressure_sealevel;temperature;humidity
9460;BME280;4768;42.664;23.240;2023-02-16T00:01:46;-9379.84;;;-1.05;100.00
9460;BME280;4768;42.664;23.240;2023-02-16T00:04:17;-9377.31;;;-1.14;100.00
9460;BME280;4768;42.664;23.240;2023-02-16T00:06:46;-9378.03;;;-1.12;100.00
9460;BME280;4768;42.664;23.240;2023-02-16T00:09:14;-9379.72;;;-1.06;100.00
9460;BME280;4768;42.664;23.240;2023-02-16T00:11:41;-9376.19;;;-1.18;100.00
9460;BME280;4768;42.664;23.240;2023-02-16T00:14:26;-9373.81;;;-1.27;100.00
9460;BME280;4768;42.664;23.240;2023-02-16T00:16:54;-9372.41;;;-1.32;100.00
9460;BME280;4768;42.664;23.240;2023-02-16T00:19:23;-9369.31;;;-1.43;100.00
9460;BME280;4768;42.664;23.240;2023-02-16T00:21:53;-9367.34;;;-1.49;100.00
9460;BME280;4768;42.664;23.240;2023-02-16T00:24:21;-9366.34;;;-1.53;100.00
9460;BME280;4768;42.664;23.240;2023-02-16T00:26:48;-9362.97;;;-1.65;100.00
9460;BME280;4768;42.664;23.240;2023-02-16T00:29:19;-9361.28;;;-1.71;100.00
9460;BME280;4768;42.664;23.240;2023-02-16T00:31:46;-9362.56;;;-1.66;100.00
9460;BME280;4768;42.664;23.240;2023-02-16T00:34:31;-9361.44;;;-1.70;100.00
9460;BME280;4768;42.664;23.240;2023-02-16T00:37:02;-9365.78;;;-1.55;100.00
9460;BME280;4768;42.664;23.240;2023-02-16T00:39:29;-9363.53;;;-1.63;100.00
9460;BME280;4768;42.664;23.240;2023-02-16T00:41:59;-9364.66;;;-1.59;100.00
9460;BME280;4768;42.664;23.240;2023-02-16T00:44:31;-9365.50;;;-1.56;100.00
9460;BME280;4768;42.664;23.240;2023-02-16T00:47:00;-9364.53;;;-1.59;100.00
9460;BME280;4768;42.664;23.240;2023-02-16T00:49:28;-9365.94;;;-1.54;100.00
9460;BME280;4768;42.664;23.240;2023-02-16T00:51:54;-9366.06;;;-1.54;100.00
9460;BME280;4768;42.664;23.240;2023-02-16T00:54:23;-9364.53;;;-1.59;100.00
9460;BME280;4768;42.664;23.240;2023-02-16T00:56:49;-9363.13;;;-1.64;100.00
9460;BME280;4768;42.664;23.240;2023-02-16T00:59:19;-9362.00;;;-1.68;100.00
9460;BME280;4768;42.664;23.240;2023-02-16T01:01:46;-9358.47;;;-1.81;100.00
9460;BME280;4768;42.664;23.240;2023-02-16T01:04:19;-9358.06;;;-1.82;100.00
9460;BME280;4768;42.664;23.240;2023-02-16T01:06:46;-9359.03;;;-1.79;100.00
9460;BME280;4768;42.664;23.240;2023-02-16T01:09:32;-9359.19;;;-1.78;100.00
9460;BME280;4768;42.664;23.240;2023-02-16T01:12:18;-9359.03;;;-1.79;100.00
9460;BME280;4768;42.664;23.240;2023-02-16T01:14:49;-9358.63;;;-1.80;100.00
9460;BME280;4768;42.664;23.240;2023-02-16T01:17:16;-9359.47;;;-1.77;100.00
9460;BME280;4768;42.664;23.240;2023-02-16T01:19:43;-9360.72;;;-1.73;100.00
9460;BME280;4768;42.664;23.240;2023-02-16T01:22:09;-9361.56;;;-1.70;100.00
9460;BME280;4768;42.664;23.240;2023-02-16T01:24:37;-9358.63;;;-1.80;100.00
9460;BME280;4768;42.664;23.240;2023-02-16T01:27:04;-9359.31;;;-1.78;100.00
9460;BME280;4768;42.664;23.240;2023-02-16T01:29:31;-9356.22;;;-1.89;100.00
9460;BME280;4768;42.664;23.240;2023-02-16T01:31:58;-9354.97;;;-1.93;100.00
9460;BME280;4768;42.664;23.240;2023-02-16T01:34:24;-9353.56;;;-1.98;100.00
9460;BME280;4768;42.664;23.240;2023-02-16T01:36:51;-9351.31;;;-2.06;100.00
9460;BME280;4768;42.664;23.240;2023-02-16T01:39:19;-9352.84;;;-2.00;100.00
9460;BME280;4768;42.664;23.240;2023-02-16T01:42:03;-9352.16;;;-2.03;100.00
9460;BME280;4768;42.664;23.240;2023-02-16T01:44:38;-9354.81;;;-1.93;100.00
9460;BME280;4768;42.664;23.240;2023-02-16T01:47:14;-9350.88;;;-2.07;100.00
9460;BME280;4768;42.664;23.240;2023-02-16T01:49:44;-9358.19;;;-1.82;100.00
9460;BME280;4768;42.664;23.240;2023-02-16T01:52:17;-9357.78;;;-1.83;100.00
9460;BME280;4768;42.664;23.240;2023-02-16T01:54:52;-9356.22;;;-1.89;100.00
9460;BME280;4768;42.664;23.240;2023-02-16T01:57:26;-9352.84;;;-2.00;100.00
9460;BME280;4768;42.664;23.240;2023-02-16T02:00:03;-9354.81;;;-1.93;100.00
9460;BME280;4768;42.664;23.240;2023-02-16T02:02:34;-9359.88;;;-1.76;100.00
9460;BME280;4768;42.664;23.240;2023-02-16T02:05:06;-9355.81;;;-1.90;100.00
9460;BME280;4768;42.664;23.240;2023-02-16T02:08:06;-9356.38;;;-1.88;100.00
9460;BME280;4768;42.664;23.240;2023-02-16T02:10:43;-9356.50;;;-1.88;100.00
9460;BME280;4768;42.664;23.240;2023-02-16T02:13:19;-9357.78;;;-1.83;100.00
9460;BME280;4768;42.664;23.240;2023-02-16T02:15:47;-9355.94;;;-1.90;100.00
9460;BME280;4768;42.664;23.240;2023-02-16T02:18:13;-9356.09;;;-1.89;100.00
9460;BME280;4768;42.664;23.240;2023-02-16T02:20:51;-9355.53;;;-1.91;100.00
9460;BME280;4768;42.664;23.240;2023-02-16T02:23:44;-9355.09;;;-1.92;100.00
9460;BME280;4768;42.664;23.240;2023-02-16T02:26:56;-9357.91;;;-1.83;100.00
9460;BME280;4768;42.664;23.240;2023-02-16T02:29:48;-9354.41;;;-1.95;100.00
9460;BME280;4768;42.664;23.240;2023-02-16T02:32:23;-9353.69;;;-1.97;100.00
9460;BME280;4768;42.664;23.240;2023-02-16T02:35:05;-9352.28;;;-2.02;100.00
9460;BME280;4768;42.664;23.240;2023-02-16T02:37:43;-9352.72;;;-2.01;100.00
9460;BME280;4768;42.664;23.240;2023-02-16T02:40:17;-9356.22;;;-1.89;100.00
9460;BME280;4768;42.664;23.240;2023-02-16T02:42:55;-9355.94;;;-1.90;100.00
9460;BME280;4768;42.664;23.240;2023-02-16T02:45:28;-9355.53;;;-1.91;100.00
9460;BME280;4768;42.664;23.240;2023-02-16T02:47:57;-9355.38;;;-1.92;100.00
9460;BME280;4768;42.664;23.240;2023-02-16T02:50:35;-9355.25;;;-1.92;100.00
9460;BME280;4768;42.664;23.240;2023-02-16T02:53:09;-9352.56;;;-2.01;100.00
9460;BME280;4768;42.664;23.240;2023-02-16T02:55:40;-9352.16;;;-2.03;100.00
9460;BME280;4768;42.664;23.240;2023-02-16T02:58:28;-9352.84;;;-2.00;100.00
9460;BME280;4768;42.664;23.240;2023-02-16T03:01:18;-9352.72;;;-2.01;100.00
9460;BME280;4768;42.664;23.240;2023-02-16T03:03:47;-9350.59;;;-2.08;100.00
9460;BME280;4768;42.664;23.240;2023-02-16T03:06:19;-9352.16;;;-2.03;100.00
9460;BME280;4768;42.664;23.240;2023-02-16T03:08:51;-9347.78;;;-2.18;100.00
9460;BME280;4768;42.664;23.240;2023-02-16T03:11:22;-9342.44;;;-2.37;100.00
9460;BME280;4768;42.664;23.240;2023-02-16T03:14:09;-9341.03;;;-2.42;100.00
9460;BME280;4768;42.664;23.240;2023-02-16T03:16:41;-9343.72;;;-2.33;100.00
9460;BME280;4768;42.664;23.240;2023-02-16T03:19:11;-9345.69;;;-2.26;100.00
9460;BME280;4768;42.664;23.240;2023-02-16T03:21:57;-9347.09;;;-2.21;100.00
9460;BME280;4768;42.664;23.240;2023-02-16T03:24:42;-9350.19;;;-2.10;100.00
9460;BME280;4768;42.664;23.240;2023-02-16T03:27:30;-9346.09;;;-2.24;100.00
9460;BME280;4768;42.664;23.240;2023-02-16T03:30:18;-9348.50;;;-2.16;100.00
9460;BME280;4768;42.664;23.240;2023-02-16T03:32:45;-9348.63;;;-2.15;100.00
9460;BME280;4768;42.664;23.240;2023-02-16T03:35:13;-9347.78;;;-2.18;100.00
9460;BME280;4768;42.664;23.240;2023-02-16T03:37:41;-9347.78;;;-2.18;100.00
9460;BME280;4768;42.664;23.240;2023-02-16T03:40:11;-9344.28;;;-2.31;100.00
9460;BME280;4768;42.664;23.240;2023-02-16T03:42:55;-9343.16;;;-2.35;100.00
9460;BME280;4768;42.664;23.240;2023-02-16T03:45:24;-9345.53;;;-2.26;100.00
9460;BME280;4768;42.664;23.240;2023-02-16T03:47:50;-9340.75;;;-2.43;100.00
9460;BME280;4768;42.664;23.240;2023-02-16T03:50:17;-9336.41;;;-2.58;100.00
9460;BME280;4768;42.664;23.240;2023-02-16T03:52:44;-9333.31;;;-2.69;100.00
9460;BME280;4768;42.664;23.240;2023-02-16T03:55:10;-9334.72;;;-2.64;100.00
9460;BME280;4768;42.664;23.240;2023-02-16T03:57:38;-9334.00;;;-2.67;100.00
9460;BME280;4768;42.664;23.240;2023-02-16T04:00:06;-9337.66;;;-2.54;100.00
9460;BME280;4768;42.664;23.240;2023-02-16T04:02:34;-9343.72;;;-2.33;100.00
9460;BME280;4768;42.664;23.240;2023-02-16T04:05:01;-9342.03;;;-2.39;100.00
9460;BME280;4768;42.664;23.240;2023-02-16T04:07:28;-9343.16;;;-2.35;100.00
9460;BME280;4768;42.664;23.240;2023-02-16T04:09:54;-9345.81;;;-2.25;100.00
9460;BME280;4768;42.664;23.240;2023-02-16T04:12:21;-9342.31;;;-2.38;100.00
9460;BME280;4768;42.664;23.240;2023-02-16T04:15:03;-9343.56;;;-2.33;100.00
9460;BME280;4768;42.664;23.240;2023-02-16T04:17:30;-9342.88;;;-2.36;100.00
9460;BME280;4768;42.664;23.240;2023-02-16T04:19:58;-9347.09;;;-2.21;100.00
9460;BME280;4768;42.664;23.240;2023-02-16T04:22:25;-9344.97;;;-2.28;100.00
9460;BME280;4768;42.664;23.240;2023-02-16T04:24:52;-9342.59;;;-2.37;100.00
9460;BME280;4768;42.664;23.240;2023-02-16T04:27:18;-9344.28;;;-2.31;100.00
9460;BME280;4768;42.664;23.240;2023-02-16T04:29:45;-9344.41;;;-2.30;100.00
9460;BME280;4768;42.664;23.240;2023-02-16T04:32:12;-9345.25;;;-2.27;100.00
9460;BME280;4768;42.664;23.240;2023-02-16T04:34:39;-9346.81;;;-2.22;100.00
9460;BME280;4768;42.664;23.240;2023-02-16T04:37:07;-9342.72;;;-2.36;100.00
9460;BME280;4768;42.664;23.240;2023-02-16T04:39:33;-9336.69;;;-2.57;100.00
9460;BME280;4768;42.664;23.240;2023-02-16T04:42:00;-9333.31;;;-2.69;100.00
9460;BME280;4768;42.664;23.240;2023-02-16T04:44:27;-9332.47;;;-2.72;100.00
9460;BME280;4768;42.664;23.240;2023-02-16T04:46:54;-9334.44;;;-2.65;100.00
9460;BME280;4768;42.664;23.240;2023-02-16T04:49:21;-9335.41;;;-2.62;100.00
9460;BME280;4768;42.664;23.240;2023-02-16T04:51:48;-9333.16;;;-2.70;100.00
9460;BME280;4768;42.664;23.240;2023-02-16T04:54:16;-9335.97;;;-2.60;100.00
9460;BME280;4768;42.664;23.240;2023-02-16T04:56:43;-9339.50;;;-2.47;100.00
9460;BME280;4768;42.664;23.240;2023-02-16T04:59:10;-9338.22;;;-2.52;100.00
9460;BME280;4768;42.664;23.240;2023-02-16T05:01:37;-9331.91;;;-2.74;100.00
9460;BME280;4768;42.664;23.240;2023-02-16T05:04:04;-9334.84;;;-2.64;100.00
9460;BME280;4768;42.664;23.240;2023-02-16T05:06:30;-9337.25;;;-2.55;100.00
9460;BME280;4768;42.664;23.240;2023-02-16T05:08:57;-9341.88;;;-2.39;100.00
9460;BME280;4768;42.664;23.240;2023-02-16T05:11:25;-9341.19;;;-2.41;100.00
9460;BME280;4768;42.664;23.240;2023-02-16T05:14:17;-9343.56;;;-2.33;100.00
9460;BME280;4768;42.664;23.240;2023-02-16T05:17:01;-9342.59;;;-2.37;100.00
9460;BME280;4768;42.664;23.240;2023-02-16T05:19:28;-9343.00;;;-2.35;100.00
9460;BME280;4768;42.664;23.240;2023-02-16T05:21:55;-9341.88;;;-2.39;100.00
9460;BME280;4768;42.664;23.240;2023-02-16T05:24:22;-9337.09;;;-2.56;100.00
9460;BME280;4768;42.664;23.240;2023-02-16T05:26:50;-9336.41;;;-2.58;100.00
9460;BME280;4768;42.664;23.240;2023-02-16T05:29:16;-9339.22;;;-2.48;100.00
9460;BME280;4768;42.664;23.240;2023-02-16T05:31:43;-9338.78;;;-2.50;100.00
9460;BME280;4768;42.664;23.240;2023-02-16T05:34:10;-9340.91;;;-2.42;100.00
9460;BME280;4768;42.664;23.240;2023-02-16T05:36:36;-9339.91;;;-2.46;100.00
9460;BME280;4768;42.664;23.240;2023-02-16T05:39:03;-9339.50;;;-2.47;100.00
9460;BME280;4768;42.664;23.240;2023-02-16T05:41:30;-9336.53;;;-2.58;100.00
9460;BME280;4768;42.664;23.240;2023-02-16T05:43:59;-9336.41;;;-2.58;100.00
9460;BME280;4768;42.664;23.240;2023-02-16T05:46:28;-9339.22;;;-2.48;100.00
9460;BME280;4768;42.664;23.240;2023-02-16T05:48:56;-9338.78;;;-2.50;100.00
9460;BME280;4768;42.664;23.240;2023-02-16T05:51:22;-9339.22;;;-2.48;100.00
9460;BME280;4768;42.664;23.240;2023-02-16T05:53:49;-9340.63;;;-2.43;100.00
9460;BME280;4768;42.664;23.240;2023-02-16T05:56:18;-9342.03;;;-2.39;100.00
9460;BME280;4768;42.664;23.240;2023-02-16T05:58:45;-9341.31;;;-2.41;100.00
9460;BME280;4768;42.664;23.240;2023-02-16T06:01:13;-9343.72;;;-2.33;100.00
9460;BME280;4768;42.664;23.240;2023-02-16T06:03:40;-9346.38;;;-2.23;100.00
9460;BME280;4768;42.664;23.240;2023-02-16T06:06:07;-9345.53;;;-2.26;100.00
9460;BME280;4768;42.664;23.240;2023-02-16T06:08:35;-9349.91;;;-2.11;100.00
9460;BME280;4768;42.664;23.240;2023-02-16T06:11:02;-9354.69;;;-1.94;100.00
9460;BME280;4768;42.664;23.240;2023-02-16T06:13:31;-9353.69;;;-1.97;100.00
9460;BME280;4768;42.664;23.240;2023-02-16T06:15:58;-9352.84;;;-2.00;100.00
9460;BME280;4768;42.664;23.240;2023-02-16T06:18:26;-9354.25;;;-1.95;100.00
9460;BME280;4768;42.664;23.240;2023-02-16T06:20:55;-9351.88;;;-2.04;100.00
9460;BME280;4768;42.664;23.240;2023-02-16T06:23:22;-9355.94;;;-1.90;100.00
9460;BME280;4768;42.664;23.240;2023-02-16T06:25:49;-9361.56;;;-1.70;100.00
9460;BME280;4768;42.664;23.240;2023-02-16T06:28:16;-9363.97;;;-1.61;100.00
9460;BME280;4768;42.664;23.240;2023-02-16T06:30:42;-9366.78;;;-1.51;100.00
9460;BME280;4768;42.664;23.240;2023-02-16T06:33:09;-9368.88;;;-1.44;100.00
9460;BME280;4768;42.664;23.240;2023-02-16T06:35:37;-9371.00;;;-1.37;100.00
9460;BME280;4768;42.664;23.240;2023-02-16T06:38:04;-9377.31;;;-1.14;100.00
9460;BME280;4768;42.664;23.240;2023-02-16T06:40:30;-9376.75;;;-1.16;100.00
9460;BME280;4768;42.664;23.240;2023-02-16T06:42:57;-9383.78;;;-0.92;100.00
9460;BME280;4768;42.664;23.240;2023-02-16T06:45:24;-9389.44;;;-0.72;100.00
9460;BME280;4768;42.664;23.240;2023-02-16T06:47:51;-9391.41;;;-0.65;100.00
9460;BME280;4768;42.664;23.240;2023-02-16T06:50:17;-9391.41;;;-0.65;100.00
9460;BME280;4768;42.664;23.240;2023-02-16T06:52:45;-9396.31;;;-0.48;100.00
9460;BME280;4768;42.664;23.240;2023-02-16T06:55:12;-9400.84;;;-0.32;100.00
9460;BME280;4768;42.664;23.240;2023-02-16T06:57:39;-9398.56;;;-0.40;100.00
9460;BME280;4768;42.664;23.240;2023-02-16T07:00:06;-9398.56;;;-0.40;100.00
9460;BME280;4768;42.664;23.240;2023-02-16T07:02:33;-9413.22;;;0.12;100.00
9460;BME280;4768;42.664;23.240;2023-02-16T07:05:02;-9402.38;;;-0.26;100.00
9460;BME280;4768;42.664;23.240;2023-02-16T07:07:28;-9413.22;;;0.12;100.00
9460;BME280;4768;42.664;23.240;2023-02-16T07:09:57;-9417.44;;;0.27;100.00
9460;BME280;4768;42.664;23.240;2023-02-16T07:12:24;-9431.41;;;0.76;100.00
9460;BME280;4768;42.664;23.240;2023-02-16T07:14:50;-9430.97;;;0.74;100.00
9460;BME280;4768;42.664;23.240;2023-02-16T07:17:17;-9423.09;;;0.47;100.00
9460;BME280;4768;42.664;23.240;2023-02-16T07:19:44;-9422.38;;;0.44;100.00
9460;BME280;4768;42.664;23.240;2023-02-16T07:22:11;-9426.47;;;0.58;100.00
9460;BME280;4768;42.664;23.240;2023-02-16T07:24:38;-9427.16;;;0.61;100.00
9460;BME280;4768;42.664;23.240;2023-02-16T07:27:06;-9422.94;;;0.46;100.00
9460;BME280;4768;42.664;23.240;2023-02-16T07:29:32;-9422.25;;;0.44;100.00
9460;BME280;4768;42.664;23.240;2023-02-16T07:31:59;-9435.75;;;0.91;100.00
9460;BME280;4768;42.664;23.240;2023-02-16T07:34:26;-9448.72;;;1.37;100.00
9460;BME280;4768;42.664;23.240;2023-02-16T07:36:53;-9443.66;;;1.19;100.00
9460;BME280;4768;42.664;23.240;2023-02-16T07:39:19;-9445.78;;;1.26;100.00
9460;BME280;4768;42.664;23.240;2023-02-16T07:41:46;-9453.81;;;1.54;100.00
9460;BME280;4768;42.664;23.240;2023-02-16T07:44:14;-9450.00;;;1.41;100.00
9460;BME280;4768;42.664;23.240;2023-02-16T07:46:41;-9461.41;;;1.81;100.00
9460;BME280;4768;42.664;23.240;2023-02-16T07:49:08;-9471.84;;;2.18;100.00
9460;BME280;4768;42.664;23.240;2023-02-16T07:51:34;-9458.19;;;1.70;100.00
9460;BME280;4768;42.664;23.240;2023-02-16T07:54:01;-9460.16;;;1.77;100.00
9460;BME280;4768;42.664;23.240;2023-02-16T07:56:29;-9478.50;;;2.41;100.00
9460;BME280;4768;42.664;23.240;2023-02-16T07:58:59;-9457.06;;;1.66;100.00
9460;BME280;4768;42.664;23.240;2023-02-16T08:01:28;-9468.34;;;2.05;100.00
9460;BME280;4768;42.664;23.240;2023-02-16T08:03:55;-9486.97;;;2.71;100.00
9460;BME280;4768;42.664;23.240;2023-02-16T08:06:23;-9484.97;;;2.64;100.00
9460;BME280;4768;42.664;23.240;2023-02-16T08:08:50;-9491.91;;;2.88;100.00
9460;BME280;4768;42.664;23.240;2023-02-16T08:11:18;-9504.88;;;3.34;100.00
9460;BME280;4768;42.664;23.240;2023-02-16T08:13:45;-9472.44;;;2.20;100.00
9460;BME280;4768;42.664;23.240;2023-02-16T08:16:14;-9474.97;;;2.29;100.00
9460;BME280;4768;42.664;23.240;2023-02-16T08:18:42;-9483.84;;;2.60;100.00
9460;BME280;4768;42.664;23.240;2023-02-16T08:21:11;-9469.59;;;2.10;100.00
9460;BME280;4768;42.664;23.240;2023-02-16T08:23:39;-9495.00;;;2.99;100.00
9460;BME280;4768;42.664;23.240;2023-02-16T08:26:08;-9502.91;;;3.27;100.00
9460;BME280;4768;42.664;23.240;2023-02-16T08:28:35;-9484.69;;;2.63;100.00
9460;BME280;4768;42.664;23.240;2023-02-16T08:31:04;-9486.53;;;2.69;100.00
9460;BME280;4768;42.664;23.240;2023-02-16T08:33:32;-9492.47;;;2.90;100.00
9460;BME280;4768;42.664;23.240;2023-02-16T08:36:00;-9491.06;;;2.85;100.00
9460;BME280;4768;42.664;23.240;2023-02-16T08:38:27;-9472.56;;;2.20;100.00
9460;BME280;4768;42.664;23.240;2023-02-16T08:40:56;-9487.53;;;2.73;100.00
9460;BME280;4768;42.664;23.240;2023-02-16T08:43:23;-9501.78;;;3.23;100.00
9460;BME280;4768;42.664;23.240;2023-02-16T08:45:51;-9496.84;;;3.05;100.00
9460;BME280;4768;42.664;23.240;2023-02-16T08:48:18;-9489.91;;;2.81;100.00
9460;BME280;4768;42.664;23.240;2023-02-16T08:50:46;-9502.34;;;3.25;100.00
9460;BME280;4768;42.664;23.240;2023-02-16T08:53:19;-9487.38;;;2.72;100.00
9460;BME280;4768;42.664;23.240;2023-02-16T08:55:52;-9490.75;;;2.84;100.00
9460;BME280;4768;42.664;23.240;2023-02-16T08:58:19;-9490.34;;;2.83;100.00
9460;BME280;4768;42.664;23.240;2023-02-16T09:00:45;-9490.34;;;2.83;100.00
9460;BME280;4768;42.664;23.240;2023-02-16T09:03:12;-9500.50;;;3.18;100.00
9460;BME280;4768;42.664;23.240;2023-02-16T09:05:40;-9499.38;;;3.14;100.00
9460;BME280;4768;42.664;23.240;2023-02-16T09:08:07;-9497.69;;;3.08;100.00
9460;BME280;4768;42.664;23.240;2023-02-16T09:10:35;-9503.47;;;3.29;100.00
9460;BME280;4768;42.664;23.240;2023-02-16T09:13:03;-9508.13;;;3.45;100.00
9460;BME280;4768;42.664;23.240;2023-02-16T09:15:31;-9514.06;;;3.66;100.00
9460;BME280;4768;42.664;23.240;2023-02-16T09:17:58;-9519.16;;;3.83;100.00
9460;BME280;4768;42.664;23.240;2023-02-16T09:20:25;-9509.97;;;3.51;100.00
9460;BME280;4768;42.664;23.240;2023-02-16T09:22:53;-9531.44;;;4.27;100.00
9460;BME280;4768;42.664;23.240;2023-02-16T09:25:20;-9526.78;;;4.10;100.00
9460;BME280;4768;42.664;23.240;2023-02-16T09:27:48;-9528.63;;;4.17;100.00
9460;BME280;4768;42.664;23.240;2023-02-16T09:30:14;-9537.38;;;4.47;100.00
9460;BME280;4768;42.664;23.240;2023-02-16T09:32:41;-9543.03;;;4.67;100.00
9460;BME280;4768;42.664;23.240;2023-02-16T09:35:08;-9527.19;;;4.12;100.00
9460;BME280;4768;42.664;23.240;2023-02-16T09:37:34;-9533.41;;;4.33;100.00
9460;BME280;4768;42.664;23.240;2023-02-16T09:40:01;-9525.09;;;4.04;100.00
9460;BME280;4768;42.664;23.240;2023-02-16T09:42:33;-9530.16;;;4.22;100.00
9460;BME280;4768;42.664;23.240;2023-02-16T09:45:10;-9536.53;;;4.44;100.00
9460;BME280;4768;42.664;23.240;2023-02-16T09:47:40;-9532.72;;;4.31;100.00
9460;BME280;4768;42.664;23.240;2023-02-16T09:50:13;-9549.09;;;4.88;100.00
9460;BME280;4768;42.664;23.240;2023-02-16T09:52:48;-9536.94;;;4.46;100.00
9460;BME280;4768;42.664;23.240;2023-02-16T09:55:17;-9542.88;;;4.67;100.00
9460;BME280;4768;42.664;23.240;2023-02-16T09:57:59;-9569.03;;;5.58;100.00
9460;BME280;4768;42.664;23.240;2023-02-16T10:00:39;-9572.88;;;5.72;100.00
9460;BME280;4768;42.664;23.240;2023-02-16T10:03:22;-9560.13;;;5.27;100.00
9460;BME280;4768;42.664;23.240;2023-02-16T10:05:57;-9549.25;;;4.89;100.00
9460;BME280;4768;42.664;23.240;2023-02-16T10:08:31;-9546.84;;;4.80;100.00
9460;BME280;4768;42.664;23.240;2023-02-16T10:11:09;-9544.88;;;4.74;100.00
9460;BME280;4768;42.664;23.240;2023-02-16T10:14:01;-9557.16;;;5.17;100.00
9460;BME280;4768;42.664;23.240;2023-02-16T10:16:35;-9552.91;;;5.02;100.00
9460;BME280;4768;42.664;23.240;2023-02-16T10:19:11;-9572.88;;;5.72;100.00
9460;BME280;4768;42.664;23.240;2023-02-16T10:21:47;-9575.56;;;5.81;100.00
9460;BME280;4768;42.664;23.240;2023-02-16T10:24:15;-9566.34;;;5.56;100.00
9460;BME280;4768;42.664;23.240;2023-02-16T10:26:45;-8891.28;;;5.64;100.00
9460;BME280;4768;42.664;23.240;2023-02-16T10:29:14;-5837.00;;;5.43;100.00
9460;BME280;4768;42.664;23.240;2023-02-16T10:31:49;-5503.75;;;5.69;100.00
9460;BME280;4768;42.664;23.240;2023-02-16T10:34:34;-2789.38;;;5.66;100.00
9460;BME280;4768;42.664;23.240;2023-02-16T10:37:16;-1097.00;;;5.98;100.00
9460;BME280;4768;42.664;23.240;2023-02-16T10:39:47;1965.34;;;5.61;100.00
9460;BME280;4768;42.664;23.240;2023-02-16T10:42:22;2302.28;;;5.92;100.00
9460;BME280;4768;42.664;23.240;2023-02-16T10:44:57;3318.50;;;6.44;100.00
9460;BME280;4768;42.664;23.240;2023-02-16T10:47:32;9110.50;;;6.39;100.00
9460;BME280;4768;42.664;23.240;2023-02-16T10:50:01;9110.25;;;6.26;100.00
9460;BME280;4768;42.664;23.240;2023-02-16T10:52:32;13204.19;;;6.31;100.00
9460;BME280;4768;42.664;23.240;2023-02-16T10:55:01;14915.53;;;6.68;100.00
9460;BME280;4768;42.664;23.240;2023-02-16T10:57:30;21061.78;;;6.17;100.00
9460;BME280;4768;42.664;23.240;2023-02-16T10:59:58;19359.50;;;6.59;100.00
9460;BME280;4768;42.664;23.240;2023-02-16T11:02:35;26205.56;;;6.45;100.00
9460;BME280;4768;42.664;23.240;2023-02-16T11:05:28;26895.19;;;6.58;100.00
9460;BME280;4768;42.664;23.240;2023-02-16T11:07:56;32733.19;;;6.66;100.00
9460;BME280;4768;42.664;23.240;2023-02-16T11:10:35;39620.88;;;6.84;100.00
9460;BME280;4768;42.664;23.240;2023-02-16T11:13:03;53426.34;;;6.87;100.00
9460;BME280;4768;42.664;23.240;2023-02-16T11:15:31;68000.38;;;7.06;100.00
9460;BME280;4768;42.664;23.240;2023-02-16T11:18:02;81953.00;;;7.29;100.00
9460;BME280;4768;42.664;23.240;2023-02-16T11:20:32;102250.72;;;7.29;100.00
9460;BME280;4768;42.664;23.240;2023-02-16T11:23:12;131892.81;;;7.45;100.00
9460;BME280;4768;42.664;23.240;2023-02-16T11:25:39;145392.09;;;7.54;100.00
9460;BME280;4768;42.664;23.240;2023-02-16T11:28:07;168904.16;;;7.45;100.00
9460;BME280;4768;42.664;23.240;2023-02-16T11:30:37;161519.97;;;7.91;100.00
9460;BME280;4768;42.664;23.240;2023-02-16T11:33:19;169041.19;;;7.96;100.00
9460;BME280;4768;42.664;23.240;2023-02-16T11:35:47;168950.72;;;7.63;100.00
9460;BME280;4768;42.664;23.240;2023-02-16T11:38:35;169021.22;;;7.89;100.00
9460;BME280;4768;42.664;23.240;2023-02-16T11:41:04;169014.56;;;7.86;100.00
9460;BME280;4768;42.664;23.240;2023-02-16T11:43:34;168988.00;;;7.76;100.00
9460;BME280;4768;42.664;23.240;2023-02-16T11:46:04;169202.25;;;8.56;100.00
9460;BME280;4768;42.664;23.240;2023-02-16T11:48:34;169164.94;;;8.42;100.00
9460;BME280;4768;42.664;23.240;2023-02-16T11:51:02;169135.69;;;8.31;100.00
9460;BME280;4768;42.664;23.240;2023-02-16T11:53:32;169178.28;;;8.47;100.00
9460;BME280;4768;42.664;23.240;2023-02-16T11:56:17;169135.69;;;8.31;100.00
9460;BME280;4768;42.664;23.240;2023-02-16T11:59:13;169294.06;;;8.90;100.00
9460;BME280;4768;42.664;23.240;2023-02-16T12:02:06;169211.53;;;8.60;100.00
9460;BME280;4768;42.664;23.240;2023-02-16T12:05:04;169182.28;;;8.49;100.00
9460;BME280;4768;42.664;23.240;2023-02-16T12:07:41;169172.94;;;8.45;100.00
9460;BME280;4768;42.664;23.240;2023-02-16T12:10:17;169172.94;;;8.45;100.00
9460;BME280;4768;42.664;23.240;2023-02-16T12:12:54;169267.44;;;8.80;100.00
9460;BME280;4768;42.664;23.240;2023-02-16T12:15:28;169274.09;;;8.83;100.00
9460;BME280;4768;42.664;23.240;2023-02-16T12:18:08;169336.69;;;9.06;100.00
9460;BME280;4768;42.664;23.240;2023-02-16T12:20:47;169408.56;;;9.33;100.00
9460;BME280;4768;42.664;23.240;2023-02-16T12:23:24;169472.47;;;9.57;100.00
9460;BME280;4768;42.664;23.240;2023-02-16T12:26:03;169463.16;;;9.53;100.00
9460;BME280;4768;42.664;23.240;2023-02-16T12:28:41;169320.69;;;9.00;100.00
9460;BME280;4768;42.664;23.240;2023-02-16T12:31:17;169372.63;;;9.19;100.00
9460;BME280;4768;42.664;23.240;2023-02-16T12:33:52;169379.25;;;9.22;100.00
9460;BME280;4768;42.664;23.240;2023-02-16T12:36:44;169306.03;;;8.95;100.00
9460;BME280;4768;42.664;23.240;2023-02-16T12:39:23;169367.25;;;9.17;100.00
9460;BME280;4768;42.664;23.240;2023-02-16T12:42:01;169373.94;;;9.20;100.00
9460;BME280;4768;42.664;23.240;2023-02-16T12:44:38;169412.56;;;9.34;100.00
9460;BME280;4768;42.664;23.240;2023-02-16T12:47:12;169517.72;;;9.73;100.00
9460;BME280;4768;42.664;23.240;2023-02-16T12:49:45;169488.44;;;9.63;100.00
9460;BME280;4768;42.664;23.240;2023-02-16T12:52:26;169429.84;;;9.41;100.00
9460;BME280;4768;42.664;23.240;2023-02-16T12:55:01;169461.81;;;9.53;100.00
9460;BME280;4768;42.664;23.240;2023-02-16T12:57:33;169439.16;;;9.44;100.00
9460;BME280;4768;42.664;23.240;2023-02-16T13:00:05;169480.47;;;9.60;100.00
9460;BME280;4768;42.664;23.240;2023-02-16T13:02:46;169491.13;;;9.63;100.00
9460;BME280;4768;42.664;23.240;2023-02-16T13:05:19;169468.47;;;9.55;100.00
9460;BME280;4768;42.664;23.240;2023-02-16T13:07:53;169512.44;;;9.71;100.00
9460;BME280;4768;42.664;23.240;2023-02-16T13:10:23;169519.09;;;9.74;100.00
9460;BME280;4768;42.664;23.240;2023-02-16T13:12:56;169529.72;;;9.78;100.00
9460;BME280;4768;42.664;23.240;2023-02-16T13:15:32;169525.72;;;9.76;100.00
9460;BME280;4768;42.664;23.240;2023-02-16T13:18:02;169556.38;;;9.88;100.00
9460;BME280;4768;42.664;23.240;2023-02-16T13:20:31;169535.06;;;9.80;100.00
9460;BME280;4768;42.664;23.240;2023-02-16T13:23:23;169529.72;;;9.78;100.00
9460;BME280;4768;42.664;23.240;2023-02-16T13:26:02;169545.69;;;9.84;100.00
9460;BME280;4768;42.664;23.240;2023-02-16T13:28:58;169557.69;;;9.88;100.00